sensor_id;sensor_type;location;lat;lon;timestamp;P1;durP1;ratioP1;P2;durP2;ratioP2
68229;SDS011;55048;52.220;5.160;2022-12-18T00:01:17;55.92;;;18.60;;
68229;SDS011;55048;52.220;5.160;2022-12-18T00:03:44;67.78;;;22.40;;
68229;SDS011;55048;52.220;5.160;2022-12-18T00:06:10;66.00;;;22.38;;
68229;SDS011;55048;52.220;5.160;2022-12-18T00:08:36;67.05;;;20.15;;
68229;SDS011;55048;52.220;5.160;2022-12-18T00:11:08;63.13;;;20.30;;
68229;SDS011;55048;52.220;5.160;2022-12-18T00:13:38;63.63;;;21.55;;
68229;SDS011;55048;52.220;5.160;2022-12-18T00:16:05;55.63;;;20.48;;
68229;SDS011;55048;52.220;5.160;2022-12-18T00:18:33;61.70;;;20.60;;
68229;SDS011;55048;52.220;5.160;2022-12-18T00:21:01;64.10;;;19.67;;
68229;SDS011;55048;52.220;5.160;2022-12-18T00:23:32;62.65;;;21.13;;
68229;SDS011;55048;52.220;5.160;2022-12-18T00:25:59;56.70;;;16.08;;
68229;SDS011;55048;52.220;5.160;2022-12-18T00:28:29;52.70;;;19.48;;
68229;SDS011;55048;52.220;5.160;2022-12-18T00:31:02;60.50;;;19.85;;
68229;SDS011;55048;52.220;5.160;2022-12-18T00:33:32;43.42;;;16.52;;
68229;SDS011;55048;52.220;5.160;2022-12-18T00:36:08;52.88;;;18.80;;
68229;SDS011;55048;52.220;5.160;2022-12-18T00:38:36;56.55;;;20.50;;
68229;SDS011;55048;52.220;5.160;2022-12-18T00:41:02;65.60;;;22.30;;
68229;SDS011;55048;52.220;5.160;2022-12-18T00:43:28;49.55;;;17.25;;
68229;SDS011;55048;52.220;5.160;2022-12-18T00:45:54;54.63;;;18.23;;
68229;SDS011;55048;52.220;5.160;2022-12-18T00:48:19;53.17;;;17.88;;
68229;SDS011;55048;52.220;5.160;2022-12-18T00:50:45;54.97;;;20.08;;
68229;SDS011;55048;52.220;5.160;2022-12-18T00:53:13;56.65;;;20.23;;
68229;SDS011;55048;52.220;5.160;2022-12-18T00:55:41;60.03;;;19.42;;
68229;SDS011;55048;52.220;5.160;2022-12-18T00:58:08;57.17;;;20.42;;
68229;SDS011;55048;52.220;5.160;2022-12-18T01:00:34;46.13;;;17.77;;
68229;SDS011;55048;52.220;5.160;2022-12-18T01:03:01;48.45;;;19.92;;
68229;SDS011;55048;52.220;5.160;2022-12-18T01:05:26;56.47;;;19.23;;
68229;SDS011;55048;52.220;5.160;2022-12-18T01:07:52;51.35;;;18.60;;
68229;SDS011;55048;52.220;5.160;2022-12-18T01:10:18;49.15;;;17.92;;
68229;SDS011;55048;52.220;5.160;2022-12-18T01:12:46;60.05;;;18.73;;
68229;SDS011;55048;52.220;5.160;2022-12-18T01:15:12;60.92;;;19.50;;
68229;SDS011;55048;52.220;5.160;2022-12-18T01:17:38;50.47;;;18.52;;
68229;SDS011;55048;52.220;5.160;2022-12-18T01:20:04;50.45;;;18.77;;
68229;SDS011;55048;52.220;5.160;2022-12-18T01:22:33;50.58;;;19.13;;
68229;SDS011;55048;52.220;5.160;2022-12-18T01:24:59;56.05;;;20.73;;
68229;SDS011;55048;52.220;5.160;2022-12-18T01:27:24;59.67;;;18.38;;
68229;SDS011;55048;52.220;5.160;2022-12-18T01:29:50;54.03;;;18.95;;
68229;SDS011;55048;52.220;5.160;2022-12-18T01:32:18;47.08;;;17.60;;
68229;SDS011;55048;52.220;5.160;2022-12-18T01:34:43;52.70;;;19.60;;
68229;SDS011;55048;52.220;5.160;2022-12-18T01:37:10;52.97;;;18.35;;
68229;SDS011;55048;52.220;5.160;2022-12-18T01:39:35;54.92;;;21.17;;
68229;SDS011;55048;52.220;5.160;2022-12-18T01:42:14;45.05;;;18.75;;
68229;SDS011;55048;52.220;5.160;2022-12-18T01:44:55;53.05;;;17.88;;
68229;SDS011;55048;52.220;5.160;2022-12-18T01:47:25;52.67;;;19.83;;
68229;SDS011;55048;52.220;5.160;2022-12-18T01:50:01;49.00;;;16.73;;
68229;SDS011;55048;52.220;5.160;2022-12-18T01:52:31;51.97;;;19.58;;
68229;SDS011;55048;52.220;5.160;2022-12-18T01:54:58;55.47;;;19.73;;
68229;SDS011;55048;52.220;5.160;2022-12-18T01:57:25;51.05;;;18.88;;
68229;SDS011;55048;52.220;5.160;2022-12-18T01:59:52;48.00;;;18.25;;
68229;SDS011;55048;52.220;5.160;2022-12-18T02:02:21;51.63;;;17.65;;
68229;SDS011;55048;52.220;5.160;2022-12-18T02:04:46;53.30;;;19.83;;
68229;SDS011;55048;52.220;5.160;2022-12-18T02:07:24;50.38;;;18.55;;
68229;SDS011;55048;52.220;5.160;2022-12-18T02:10:11;51.53;;;19.23;;
68229;SDS011;55048;52.220;5.160;2022-12-18T02:13:07;54.58;;;19.92;;
68229;SDS011;55048;52.220;5.160;2022-12-18T02:15:44;44.70;;;16.55;;
68229;SDS011;55048;52.220;5.160;2022-12-18T02:18:21;45.33;;;17.77;;
68229;SDS011;55048;52.220;5.160;2022-12-18T02:20:59;53.45;;;18.63;;
68229;SDS011;55048;52.220;5.160;2022-12-18T02:23:43;54.80;;;18.83;;
68229;SDS011;55048;52.220;5.160;2022-12-18T02:26:25;54.17;;;18.25;;
68229;SDS011;55048;52.220;5.160;2022-12-18T02:28:59;55.88;;;20.80;;
68229;SDS011;55048;52.220;5.160;2022-12-18T02:31:35;56.10;;;19.73;;
68229;SDS011;55048;52.220;5.160;2022-12-18T02:34:05;54.55;;;20.52;;
68229;SDS011;55048;52.220;5.160;2022-12-18T02:36:36;52.45;;;19.98;;
68229;SDS011;55048;52.220;5.160;2022-12-18T02:39:06;58.15;;;20.65;;
68229;SDS011;55048;52.220;5.160;2022-12-18T02:41:36;51.50;;;19.05;;
68229;SDS011;55048;52.220;5.160;2022-12-18T02:44:07;58.30;;;20.33;;
68229;SDS011;55048;52.220;5.160;2022-12-18T02:46:43;54.25;;;19.45;;
68229;SDS011;55048;52.220;5.160;2022-12-18T02:49:35;54.25;;;16.90;;
68229;SDS011;55048;52.220;5.160;2022-12-18T03:00:37;47.65;;;16.95;;
68229;SDS011;55048;52.220;5.160;2022-12-18T03:03:11;47.13;;;15.95;;
68229;SDS011;55048;52.220;5.160;2022-12-18T03:05:53;46.20;;;18.45;;
68229;SDS011;55048;52.220;5.160;2022-12-18T03:08:25;57.45;;;20.00;;
68229;SDS011;55048;52.220;5.160;2022-12-18T03:10:58;44.35;;;15.20;;
68229;SDS011;55048;52.220;5.160;2022-12-18T03:13:49;44.33;;;14.88;;
68229;SDS011;55048;52.220;5.160;2022-12-18T03:16:23;48.95;;;17.77;;
68229;SDS011;55048;52.220;5.160;2022-12-18T03:18:54;52.75;;;18.95;;
68229;SDS011;55048;52.220;5.160;2022-12-18T03:21:32;50.65;;;19.80;;
68229;SDS011;55048;52.220;5.160;2022-12-18T03:24:04;52.65;;;19.92;;
68229;SDS011;55048;52.220;5.160;2022-12-18T03:26:33;53.00;;;18.08;;
68229;SDS011;55048;52.220;5.160;2022-12-18T03:29:03;51.22;;;19.30;;
68229;SDS011;55048;52.220;5.160;2022-12-18T03:31:38;51.47;;;18.75;;
68229;SDS011;55048;52.220;5.160;2022-12-18T03:34:17;55.60;;;19.92;;
68229;SDS011;55048;52.220;5.160;2022-12-18T03:36:48;48.65;;;18.13;;
68229;SDS011;55048;52.220;5.160;2022-12-18T03:39:14;53.17;;;18.67;;
68229;SDS011;55048;52.220;5.160;2022-12-18T03:41:43;65.70;;;20.52;;
68229;SDS011;55048;52.220;5.160;2022-12-18T03:52:16;38.88;;;14.43;;
68229;SDS011;55048;52.220;5.160;2022-12-18T03:54:45;48.38;;;17.67;;
68229;SDS011;55048;52.220;5.160;2022-12-18T03:57:19;49.72;;;18.40;;
68229;SDS011;55048;52.220;5.160;2022-12-18T03:59:50;43.90;;;17.92;;
68229;SDS011;55048;52.220;5.160;2022-12-18T04:02:24;43.45;;;16.48;;
68229;SDS011;55048;52.220;5.160;2022-12-18T04:04:51;44.90;;;17.90;;
68229;SDS011;55048;52.220;5.160;2022-12-18T04:07:20;43.00;;;17.40;;
68229;SDS011;55048;52.220;5.160;2022-12-18T04:09:48;48.38;;;19.10;;
68229;SDS011;55048;52.220;5.160;2022-12-18T04:12:17;45.13;;;19.55;;
68229;SDS011;55048;52.220;5.160;2022-12-18T04:14:44;47.95;;;16.52;;
68229;SDS011;55048;52.220;5.160;2022-12-18T04:17:09;29.15;;;13.57;;
68229;SDS011;55048;52.220;5.160;2022-12-18T04:19:35;49.30;;;17.88;;
68229;SDS011;55048;52.220;5.160;2022-12-18T04:22:02;45.65;;;16.75;;
68229;SDS011;55048;52.220;5.160;2022-12-18T04:24:32;44.58;;;17.70;;
68229;SDS011;55048;52.220;5.160;2022-12-18T04:27:08;45.13;;;18.23;;
68229;SDS011;55048;52.220;5.160;2022-12-18T04:29:40;44.38;;;18.77;;
68229;SDS011;55048;52.220;5.160;2022-12-18T04:32:06;42.80;;;16.60;;
68229;SDS011;55048;52.220;5.160;2022-12-18T04:34:32;45.65;;;17.08;;
68229;SDS011;55048;52.220;5.160;2022-12-18T04:36:58;50.15;;;17.45;;
68229;SDS011;55048;52.220;5.160;2022-12-18T04:39:24;43.83;;;16.98;;
68229;SDS011;55048;52.220;5.160;2022-12-18T04:41:52;48.45;;;17.65;;
68229;SDS011;55048;52.220;5.160;2022-12-18T04:44:18;34.65;;;15.70;;
68229;SDS011;55048;52.220;5.160;2022-12-18T04:46:43;41.10;;;16.40;;
68229;SDS011;55048;52.220;5.160;2022-12-18T04:49:09;30.77;;;12.77;;
68229;SDS011;55048;52.220;5.160;2022-12-18T04:51:35;35.92;;;15.82;;
68229;SDS011;55048;52.220;5.160;2022-12-18T04:54:01;39.38;;;15.52;;
68229;SDS011;55048;52.220;5.160;2022-12-18T04:56:27;34.35;;;14.85;;
68229;SDS011;55048;52.220;5.160;2022-12-18T04:58:52;35.05;;;14.77;;
68229;SDS011;55048;52.220;5.160;2022-12-18T05:01:17;33.47;;;14.80;;
68229;SDS011;55048;52.220;5.160;2022-12-18T05:03:43;37.95;;;14.40;;
68229;SDS011;55048;52.220;5.160;2022-12-18T05:06:09;35.00;;;13.70;;
68229;SDS011;55048;52.220;5.160;2022-12-18T05:08:35;26.23;;;12.27;;
68229;SDS011;55048;52.220;5.160;2022-12-18T05:11:05;37.70;;;14.02;;
68229;SDS011;55048;52.220;5.160;2022-12-18T05:13:33;29.25;;;12.63;;
68229;SDS011;55048;52.220;5.160;2022-12-18T05:15:59;30.77;;;11.85;;
68229;SDS011;55048;52.220;5.160;2022-12-18T05:18:25;32.08;;;14.18;;
68229;SDS011;55048;52.220;5.160;2022-12-18T05:20:51;35.60;;;13.85;;
68229;SDS011;55048;52.220;5.160;2022-12-18T05:23:17;34.88;;;13.45;;
68229;SDS011;55048;52.220;5.160;2022-12-18T05:25:46;32.15;;;12.93;;
68229;SDS011;55048;52.220;5.160;2022-12-18T05:28:18;28.88;;;13.35;;
68229;SDS011;55048;52.220;5.160;2022-12-18T05:30:50;35.95;;;14.10;;
68229;SDS011;55048;52.220;5.160;2022-12-18T05:33:17;30.80;;;12.38;;
68229;SDS011;55048;52.220;5.160;2022-12-18T05:35:44;33.65;;;13.65;;
68229;SDS011;55048;52.220;5.160;2022-12-18T05:38:15;35.75;;;12.75;;
68229;SDS011;55048;52.220;5.160;2022-12-18T05:40:41;32.10;;;13.20;;
68229;SDS011;55048;52.220;5.160;2022-12-18T05:43:08;30.00;;;13.13;;
68229;SDS011;55048;52.220;5.160;2022-12-18T05:45:36;26.25;;;12.23;;
68229;SDS011;55048;52.220;5.160;2022-12-18T05:48:03;33.85;;;12.48;;
68229;SDS011;55048;52.220;5.160;2022-12-18T05:50:28;30.15;;;13.00;;
68229;SDS011;55048;52.220;5.160;2022-12-18T05:53:00;30.92;;;12.98;;
68229;SDS011;55048;52.220;5.160;2022-12-18T05:55:25;35.30;;;13.50;;
68229;SDS011;55048;52.220;5.160;2022-12-18T05:57:51;34.88;;;12.80;;
68229;SDS011;55048;52.220;5.160;2022-12-18T06:00:16;30.70;;;12.18;;
68229;SDS011;55048;52.220;5.160;2022-12-18T06:02:42;29.75;;;12.32;;
68229;SDS011;55048;52.220;5.160;2022-12-18T06:05:07;29.48;;;12.27;;
68229;SDS011;55048;52.220;5.160;2022-12-18T06:07:32;30.45;;;11.43;;
68229;SDS011;55048;52.220;5.160;2022-12-18T06:09:58;28.88;;;12.38;;
68229;SDS011;55048;52.220;5.160;2022-12-18T06:12:23;34.42;;;12.10;;
68229;SDS011;55048;52.220;5.160;2022-12-18T06:14:49;18.25;;;8.13;;
68229;SDS011;55048;52.220;5.160;2022-12-18T06:17:22;30.85;;;11.18;;
68229;SDS011;55048;52.220;5.160;2022-12-18T06:19:47;23.77;;;10.68;;
68229;SDS011;55048;52.220;5.160;2022-12-18T06:22:13;25.98;;;10.93;;
68229;SDS011;55048;52.220;5.160;2022-12-18T06:24:41;35.28;;;12.45;;
68229;SDS011;55048;52.220;5.160;2022-12-18T06:27:06;30.38;;;11.57;;
68229;SDS011;55048;52.220;5.160;2022-12-18T06:29:32;21.48;;;10.23;;
68229;SDS011;55048;52.220;5.160;2022-12-18T06:31:57;21.65;;;10.75;;
68229;SDS011;55048;52.220;5.160;2022-12-18T06:34:22;28.60;;;11.38;;
68229;SDS011;55048;52.220;5.160;2022-12-18T06:36:48;19.77;;;9.25;;
68229;SDS011;55048;52.220;5.160;2022-12-18T06:39:13;25.70;;;10.55;;
68229;SDS011;55048;52.220;5.160;2022-12-18T06:41:38;18.10;;;8.73;;
68229;SDS011;55048;52.220;5.160;2022-12-18T06:44:04;22.77;;;9.45;;
68229;SDS011;55048;52.220;5.160;2022-12-18T06:46:29;29.25;;;11.32;;
68229;SDS011;55048;52.220;5.160;2022-12-18T06:48:55;25.20;;;10.60;;
68229;SDS011;55048;52.220;5.160;2022-12-18T06:51:20;22.90;;;9.55;;
68229;SDS011;55048;52.220;5.160;2022-12-18T06:53:47;18.10;;;9.35;;
68229;SDS011;55048;52.220;5.160;2022-12-18T06:56:13;21.73;;;9.85;;
68229;SDS011;55048;52.220;5.160;2022-12-18T06:58:38;19.83;;;9.27;;
68229;SDS011;55048;52.220;5.160;2022-12-18T07:01:05;21.92;;;10.10;;
68229;SDS011;55048;52.220;5.160;2022-12-18T07:03:31;29.52;;;10.63;;
68229;SDS011;55048;52.220;5.160;2022-12-18T07:05:57;20.33;;;9.85;;
68229;SDS011;55048;52.220;5.160;2022-12-18T07:08:22;23.38;;;9.98;;
68229;SDS011;55048;52.220;5.160;2022-12-18T07:10:47;19.55;;;8.98;;
68229;SDS011;55048;52.220;5.160;2022-12-18T07:13:16;23.25;;;9.45;;
68229;SDS011;55048;52.220;5.160;2022-12-18T07:15:42;23.30;;;9.88;;
68229;SDS011;55048;52.220;5.160;2022-12-18T07:18:08;22.80;;;8.63;;
68229;SDS011;55048;52.220;5.160;2022-12-18T07:20:33;20.42;;;9.10;;
68229;SDS011;55048;52.220;5.160;2022-12-18T07:23:01;19.88;;;9.88;;
68229;SDS011;55048;52.220;5.160;2022-12-18T07:25:27;18.05;;;8.40;;
68229;SDS011;55048;52.220;5.160;2022-12-18T07:27:52;16.85;;;7.88;;
68229;SDS011;55048;52.220;5.160;2022-12-18T07:30:17;16.42;;;8.15;;
68229;SDS011;55048;52.220;5.160;2022-12-18T07:32:43;18.25;;;8.02;;
68229;SDS011;55048;52.220;5.160;2022-12-18T07:35:08;18.42;;;8.60;;
68229;SDS011;55048;52.220;5.160;2022-12-18T07:37:34;20.08;;;9.13;;
68229;SDS011;55048;52.220;5.160;2022-12-18T07:39:59;14.07;;;6.45;;
68229;SDS011;55048;52.220;5.160;2022-12-18T07:42:24;18.52;;;8.15;;
68229;SDS011;55048;52.220;5.160;2022-12-18T07:44:56;20.17;;;7.25;;
68229;SDS011;55048;52.220;5.160;2022-12-18T07:47:22;24.65;;;9.65;;
68229;SDS011;55048;52.220;5.160;2022-12-18T07:49:47;15.82;;;8.82;;
68229;SDS011;55048;52.220;5.160;2022-12-18T07:52:13;11.85;;;6.25;;
68229;SDS011;55048;52.220;5.160;2022-12-18T07:54:38;17.30;;;8.10;;
68229;SDS011;55048;52.220;5.160;2022-12-18T07:57:05;20.15;;;9.00;;
68229;SDS011;55048;52.220;5.160;2022-12-18T07:59:30;14.98;;;7.97;;
68229;SDS011;55048;52.220;5.160;2022-12-18T08:01:59;21.75;;;8.88;;
68229;SDS011;55048;52.220;5.160;2022-12-18T08:04:25;17.08;;;8.88;;
68229;SDS011;55048;52.220;5.160;2022-12-18T08:06:50;18.63;;;9.70;;
68229;SDS011;55048;52.220;5.160;2022-12-18T08:09:16;20.48;;;8.73;;
68229;SDS011;55048;52.220;5.160;2022-12-18T08:11:41;20.52;;;9.38;;
68229;SDS011;55048;52.220;5.160;2022-12-18T08:14:07;14.85;;;7.82;;
68229;SDS011;55048;52.220;5.160;2022-12-18T08:16:33;16.65;;;7.55;;
68229;SDS011;55048;52.220;5.160;2022-12-18T08:18:58;21.02;;;8.68;;
68229;SDS011;55048;52.220;5.160;2022-12-18T08:21:25;21.20;;;10.07;;
68229;SDS011;55048;52.220;5.160;2022-12-18T08:23:56;17.77;;;9.38;;
68229;SDS011;55048;52.220;5.160;2022-12-18T08:26:24;20.95;;;10.00;;
68229;SDS011;55048;52.220;5.160;2022-12-18T08:28:53;11.55;;;7.03;;
68229;SDS011;55048;52.220;5.160;2022-12-18T08:31:19;16.65;;;8.35;;
68229;SDS011;55048;52.220;5.160;2022-12-18T08:33:44;15.77;;;8.15;;
68229;SDS011;55048;52.220;5.160;2022-12-18T08:36:10;6.55;;;4.03;;
68229;SDS011;55048;52.220;5.160;2022-12-18T08:38:36;14.70;;;9.10;;
68229;SDS011;55048;52.220;5.160;2022-12-18T08:41:05;18.38;;;8.32;;
68229;SDS011;55048;52.220;5.160;2022-12-18T08:43:32;18.00;;;8.23;;
68229;SDS011;55048;52.220;5.160;2022-12-18T08:46:17;17.90;;;8.27;;
68229;SDS011;55048;52.220;5.160;2022-12-18T08:48:43;13.27;;;7.68;;
68229;SDS011;55048;52.220;5.160;2022-12-18T08:51:09;9.70;;;5.68;;
68229;SDS011;55048;52.220;5.160;2022-12-18T08:53:35;15.05;;;7.88;;
68229;SDS011;55048;52.220;5.160;2022-12-18T08:56:00;17.55;;;9.00;;
68229;SDS011;55048;52.220;5.160;2022-12-18T08:58:26;18.52;;;7.82;;
68229;SDS011;55048;52.220;5.160;2022-12-18T09:00:52;17.50;;;8.10;;
68229;SDS011;55048;52.220;5.160;2022-12-18T09:03:17;18.63;;;7.22;;
68229;SDS011;55048;52.220;5.160;2022-12-18T09:05:45;17.27;;;8.77;;
68229;SDS011;55048;52.220;5.160;2022-12-18T09:08:11;21.88;;;8.98;;
68229;SDS011;55048;52.220;5.160;2022-12-18T09:10:43;10.00;;;5.75;;
68229;SDS011;55048;52.220;5.160;2022-12-18T09:13:09;22.67;;;8.38;;
68229;SDS011;55048;52.220;5.160;2022-12-18T09:15:40;16.33;;;7.82;;
68229;SDS011;55048;52.220;5.160;2022-12-18T09:18:06;17.25;;;8.35;;
68229;SDS011;55048;52.220;5.160;2022-12-18T09:20:32;15.95;;;5.82;;
68229;SDS011;55048;52.220;5.160;2022-12-18T09:22:57;18.00;;;7.57;;
68229;SDS011;55048;52.220;5.160;2022-12-18T09:25:22;11.80;;;6.00;;
68229;SDS011;55048;52.220;5.160;2022-12-18T09:27:48;16.63;;;8.98;;
68229;SDS011;55048;52.220;5.160;2022-12-18T09:30:13;13.18;;;7.55;;
68229;SDS011;55048;52.220;5.160;2022-12-18T09:32:39;13.68;;;8.38;;
68229;SDS011;55048;52.220;5.160;2022-12-18T09:35:04;13.88;;;7.95;;
68229;SDS011;55048;52.220;5.160;2022-12-18T09:37:30;18.08;;;8.57;;
68229;SDS011;55048;52.220;5.160;2022-12-18T09:39:56;17.23;;;7.72;;
68229;SDS011;55048;52.220;5.160;2022-12-18T09:42:21;22.38;;;9.20;;
68229;SDS011;55048;52.220;5.160;2022-12-18T09:44:51;15.07;;;7.13;;
68229;SDS011;55048;52.220;5.160;2022-12-18T09:47:25;19.35;;;7.75;;
68229;SDS011;55048;52.220;5.160;2022-12-18T09:50:00;22.20;;;9.13;;
68229;SDS011;55048;52.220;5.160;2022-12-18T09:52:35;17.55;;;8.27;;
68229;SDS011;55048;52.220;5.160;2022-12-18T09:55:14;15.65;;;8.40;;
68229;SDS011;55048;52.220;5.160;2022-12-18T09:57:42;16.63;;;8.43;;
68229;SDS011;55048;52.220;5.160;2022-12-18T10:00:19;13.85;;;8.02;;
68229;SDS011;55048;52.220;5.160;2022-12-18T10:02:53;16.42;;;7.28;;
68229;SDS011;55048;52.220;5.160;2022-12-18T10:10:25;13.65;;;7.50;;
68229;SDS011;55048;52.220;5.160;2022-12-18T10:15:50;14.32;;;7.85;;
68229;SDS011;55048;52.220;5.160;2022-12-18T10:21:18;14.77;;;7.93;;
68229;SDS011;55048;52.220;5.160;2022-12-18T10:26:18;18.42;;;9.63;;
68229;SDS011;55048;52.220;5.160;2022-12-18T10:28:43;14.80;;;8.30;;
68229;SDS011;55048;52.220;5.160;2022-12-18T10:31:43;10.77;;;6.30;;
68229;SDS011;55048;52.220;5.160;2022-12-18T10:34:01;17.13;;;9.15;;
68229;SDS011;55048;52.220;5.160;2022-12-18T10:36:27;18.30;;;8.38;;
68229;SDS011;55048;52.220;5.160;2022-12-18T10:38:52;16.80;;;8.30;;
68229;SDS011;55048;52.220;5.160;2022-12-18T10:43:43;14.07;;;6.80;;
68229;SDS011;55048;52.220;5.160;2022-12-18T10:51:26;15.48;;;7.70;;
68229;SDS011;55048;52.220;5.160;2022-12-18T10:53:56;17.23;;;7.78;;
68229;SDS011;55048;52.220;5.160;2022-12-18T10:56:25;14.88;;;8.70;;
68229;SDS011;55048;52.220;5.160;2022-12-18T10:58:56;12.52;;;7.57;;
68229;SDS011;55048;52.220;5.160;2022-12-18T11:04:51;15.05;;;8.60;;
68229;SDS011;55048;52.220;5.160;2022-12-18T11:07:18;13.35;;;7.00;;
68229;SDS011;55048;52.220;5.160;2022-12-18T11:09:43;14.13;;;7.47;;
68229;SDS011;55048;52.220;5.160;2022-12-18T11:12:24;14.07;;;6.53;;
68229;SDS011;55048;52.220;5.160;2022-12-18T11:14:50;13.52;;;8.02;;
68229;SDS011;55048;52.220;5.160;2022-12-18T11:19:58;9.88;;;5.13;;
68229;SDS011;55048;52.220;5.160;2022-12-18T11:22:29;14.82;;;7.22;;
68229;SDS011;55048;52.220;5.160;2022-12-18T11:30:36;16.75;;;8.23;;
68229;SDS011;55048;52.220;5.160;2022-12-18T11:33:05;23.67;;;9.75;;
68229;SDS011;55048;52.220;5.160;2022-12-18T11:35:39;17.65;;;8.18;;
68229;SDS011;55048;52.220;5.160;2022-12-18T11:41:00;13.30;;;7.38;;
68229;SDS011;55048;52.220;5.160;2022-12-18T11:46:34;14.80;;;7.80;;
68229;SDS011;55048;52.220;5.160;2022-12-18T11:49:11;13.93;;;6.88;;
68229;SDS011;55048;52.220;5.160;2022-12-18T11:52:04;12.57;;;6.82;;
68229;SDS011;55048;52.220;5.160;2022-12-18T11:54:45;15.98;;;8.25;;
68229;SDS011;55048;52.220;5.160;2022-12-18T12:08:41;13.82;;;7.00;;
68229;SDS011;55048;52.220;5.160;2022-12-18T12:16:34;17.02;;;8.05;;
68229;SDS011;55048;52.220;5.160;2022-12-18T12:19:26;15.90;;;7.20;;
68229;SDS011;55048;52.220;5.160;2022-12-18T12:27:48;14.43;;;6.20;;
68229;SDS011;55048;52.220;5.160;2022-12-18T12:30:21;16.25;;;7.82;;
68229;SDS011;55048;52.220;5.160;2022-12-18T12:38:27;20.10;;;8.50;;
68229;SDS011;55048;52.220;5.160;2022-12-18T12:40:59;15.48;;;7.65;;
68229;SDS011;55048;52.220;5.160;2022-12-18T12:43:31;9.43;;;4.72;;
68229;SDS011;55048;52.220;5.160;2022-12-18T12:46:04;12.55;;;6.55;;
68229;SDS011;55048;52.220;5.160;2022-12-18T12:48:51;14.10;;;6.97;;
68229;SDS011;55048;52.220;5.160;2022-12-18T12:51:23;13.57;;;5.75;;
68229;SDS011;55048;52.220;5.160;2022-12-18T12:53:51;16.25;;;7.80;;
68229;SDS011;55048;52.220;5.160;2022-12-18T12:56:18;11.80;;;5.63;;
68229;SDS011;55048;52.220;5.160;2022-12-18T13:01:21;17.67;;;7.68;;
68229;SDS011;55048;52.220;5.160;2022-12-18T13:07:03;12.55;;;6.90;;
68229;SDS011;55048;52.220;5.160;2022-12-18T13:10:10;14.63;;;7.65;;
68229;SDS011;55048;52.220;5.160;2022-12-18T13:12:57;18.25;;;7.45;;
68229;SDS011;55048;52.220;5.160;2022-12-18T13:18:28;12.98;;;6.78;;
68229;SDS011;55048;52.220;5.160;2022-12-18T13:25:47;16.92;;;7.65;;
68229;SDS011;55048;52.220;5.160;2022-12-18T13:28:14;17.48;;;8.63;;
68229;SDS011;55048;52.220;5.160;2022-12-18T13:30:53;17.27;;;7.63;;
68229;SDS011;55048;52.220;5.160;2022-12-18T13:35:52;22.00;;;7.53;;
68229;SDS011;55048;52.220;5.160;2022-12-18T13:40:57;14.90;;;7.70;;
68229;SDS011;55048;52.220;5.160;2022-12-18T13:43:26;13.20;;;5.53;;
68229;SDS011;55048;52.220;5.160;2022-12-18T13:48:31;15.35;;;7.70;;
68229;SDS011;55048;52.220;5.160;2022-12-18T13:51:00;12.55;;;5.78;;
68229;SDS011;55048;52.220;5.160;2022-12-18T13:56:24;12.98;;;7.38;;
68229;SDS011;55048;52.220;5.160;2022-12-18T14:06:46;15.88;;;8.20;;
68229;SDS011;55048;52.220;5.160;2022-12-18T14:09:13;16.00;;;8.15;;
68229;SDS011;55048;52.220;5.160;2022-12-18T14:11:48;12.45;;;6.85;;
68229;SDS011;55048;52.220;5.160;2022-12-18T14:16:41;12.40;;;6.25;;
68229;SDS011;55048;52.220;5.160;2022-12-18T14:19:14;14.90;;;7.60;;
68229;SDS011;55048;52.220;5.160;2022-12-18T14:21:46;16.33;;;8.10;;
68229;SDS011;55048;52.220;5.160;2022-12-18T14:24:17;15.63;;;7.20;;
68229;SDS011;55048;52.220;5.160;2022-12-18T14:26:45;15.55;;;7.38;;
68229;SDS011;55048;52.220;5.160;2022-12-18T14:29:19;13.93;;;7.55;;
68229;SDS011;55048;52.220;5.160;2022-12-18T14:31:45;14.52;;;6.47;;
68229;SDS011;55048;52.220;5.160;2022-12-18T14:34:15;13.98;;;8.30;;
68229;SDS011;55048;52.220;5.160;2022-12-18T14:36:41;12.80;;;6.97;;
68229;SDS011;55048;52.220;5.160;2022-12-18T14:39:24;14.85;;;8.02;;
68229;SDS011;55048;52.220;5.160;2022-12-18T14:41:50;13.82;;;7.72;;
68229;SDS011;55048;52.220;5.160;2022-12-18T14:44:16;13.60;;;7.43;;
68229;SDS011;55048;52.220;5.160;2022-12-18T14:46:43;15.88;;;8.10;;
68229;SDS011;55048;52.220;5.160;2022-12-18T14:49:24;19.15;;;8.35;;
68229;SDS011;55048;52.220;5.160;2022-12-18T14:52:18;17.75;;;8.30;;
68229;SDS011;55048;52.220;5.160;2022-12-18T14:54:48;19.52;;;9.52;;
68229;SDS011;55048;52.220;5.160;2022-12-18T14:57:18;18.42;;;7.30;;
68229;SDS011;55048;52.220;5.160;2022-12-18T14:59:48;18.70;;;9.52;;
68229;SDS011;55048;52.220;5.160;2022-12-18T15:07:20;17.70;;;8.88;;
68229;SDS011;55048;52.220;5.160;2022-12-18T15:10:01;9.73;;;6.40;;
68229;SDS011;55048;52.220;5.160;2022-12-18T15:12:41;22.95;;;10.13;;
68229;SDS011;55048;52.220;5.160;2022-12-18T15:20:32;15.63;;;8.43;;
68229;SDS011;55048;52.220;5.160;2022-12-18T15:23:03;18.30;;;8.77;;
68229;SDS011;55048;52.220;5.160;2022-12-18T15:25:34;23.63;;;10.10;;
68229;SDS011;55048;52.220;5.160;2022-12-18T15:28:13;18.30;;;9.65;;
68229;SDS011;55048;52.220;5.160;2022-12-18T15:30:57;18.83;;;9.15;;
68229;SDS011;55048;52.220;5.160;2022-12-18T15:33:30;17.13;;;9.13;;
68229;SDS011;55048;52.220;5.160;2022-12-18T15:36:02;19.67;;;9.05;;
68229;SDS011;55048;52.220;5.160;2022-12-18T15:38:29;20.73;;;9.85;;
68229;SDS011;55048;52.220;5.160;2022-12-18T15:40:55;21.48;;;9.30;;
68229;SDS011;55048;52.220;5.160;2022-12-18T15:43:22;21.75;;;10.32;;
68229;SDS011;55048;52.220;5.160;2022-12-18T15:46:12;22.00;;;10.20;;
68229;SDS011;55048;52.220;5.160;2022-12-18T15:48:43;18.05;;;8.88;;
68229;SDS011;55048;52.220;5.160;2022-12-18T15:51:20;13.98;;;7.72;;
68229;SDS011;55048;52.220;5.160;2022-12-18T15:53:49;14.57;;;7.55;;
68229;SDS011;55048;52.220;5.160;2022-12-18T15:56:18;17.63;;;7.40;;
68229;SDS011;55048;52.220;5.160;2022-12-18T15:59:02;11.02;;;6.25;;
68229;SDS011;55048;52.220;5.160;2022-12-18T16:01:34;24.38;;;10.68;;
68229;SDS011;55048;52.220;5.160;2022-12-18T16:04:00;16.17;;;7.45;;
68229;SDS011;55048;52.220;5.160;2022-12-18T16:06:25;16.45;;;8.15;;
68229;SDS011;55048;52.220;5.160;2022-12-18T16:08:51;19.70;;;9.10;;
68229;SDS011;55048;52.220;5.160;2022-12-18T16:11:29;15.48;;;7.75;;
68229;SDS011;55048;52.220;5.160;2022-12-18T16:14:19;16.27;;;7.75;;
68229;SDS011;55048;52.220;5.160;2022-12-18T16:16:47;20.35;;;8.30;;
68229;SDS011;55048;52.220;5.160;2022-12-18T16:19:15;19.20;;;8.60;;
68229;SDS011;55048;52.220;5.160;2022-12-18T16:21:41;18.38;;;9.05;;
68229;SDS011;55048;52.220;5.160;2022-12-18T16:24:12;18.70;;;8.90;;
68229;SDS011;55048;52.220;5.160;2022-12-18T16:26:41;21.88;;;9.63;;
68229;SDS011;55048;52.220;5.160;2022-12-18T16:29:07;18.25;;;8.32;;
68229;SDS011;55048;52.220;5.160;2022-12-18T16:31:32;13.80;;;6.30;;
68229;SDS011;55048;52.220;5.160;2022-12-18T16:36:50;19.13;;;9.20;;
68229;SDS011;55048;52.220;5.160;2022-12-18T16:39:16;15.00;;;7.43;;
68229;SDS011;55048;52.220;5.160;2022-12-18T16:41:42;20.65;;;10.35;;
68229;SDS011;55048;52.220;5.160;2022-12-18T16:44:08;17.63;;;9.45;;
68229;SDS011;55048;52.220;5.160;2022-12-18T16:46:34;10.85;;;6.15;;
68229;SDS011;55048;52.220;5.160;2022-12-18T16:48:59;17.77;;;9.70;;
68229;SDS011;55048;52.220;5.160;2022-12-18T16:51:25;24.33;;;10.50;;
68229;SDS011;55048;52.220;5.160;2022-12-18T16:53:52;15.13;;;6.57;;